createdAt,value
2022-11-23T00:01:39.216Z,74.44
2022-11-23T00:04:11.109Z,74.06
2022-11-23T00:06:39.181Z,74.34
2022-11-23T00:09:07.764Z,73.94
2022-11-23T00:11:38.906Z,73.81
2022-11-23T00:14:07.091Z,74.50
2022-11-23T00:16:35.211Z,74.35
2022-11-23T00:19:05.053Z,74.41
2022-11-23T00:21:34.161Z,74.03
2022-11-23T00:24:02.231Z,74.54
2022-11-23T00:26:30.323Z,74.21
2022-11-23T00:28:58.325Z,73.90
2022-11-23T00:31:26.459Z,74.38
2022-11-23T00:33:56.570Z,74.23
2022-11-23T00:36:26.577Z,73.77
2022-11-23T00:38:58.575Z,73.99
2022-11-23T00:41:32.416Z,73.50
2022-11-23T00:44:00.403Z,73.43
2022-11-23T00:46:29.464Z,73.57
2022-11-23T00:48:58.842Z,73.90
2022-11-23T00:51:32.789Z,73.73
2022-11-23T00:54:02.311Z,73.89
2022-11-23T00:56:32.653Z,73.73
2022-11-23T00:59:02.775Z,73.68
2022-11-23T01:01:34.708Z,73.72
2022-11-23T01:04:04.953Z,73.44
2022-11-23T01:06:35.804Z,73.49
2022-11-23T01:09:10.068Z,73.79
2022-11-23T01:11:38.073Z,73.26
2022-11-23T01:14:07.369Z,73.56
2022-11-23T01:16:38.911Z,73.26
2022-11-23T01:19:13.883Z,73.53
2022-11-23T01:21:42.038Z,73.48
2022-11-23T01:24:15.263Z,73.49
2022-11-23T01:26:47.231Z,73.97
2022-11-23T01:29:15.356Z,73.90
2022-11-23T01:31:46.719Z,73.58
2022-11-23T01:34:16.418Z,73.98
2022-11-23T01:36:45.158Z,73.71
2022-11-23T01:39:13.939Z,73.98
2022-11-23T01:41:45.135Z,73.85
2022-11-23T01:44:32.181Z,73.67
2022-11-23T01:47:07.128Z,73.29
2022-11-23T01:49:44.203Z,73.55
2022-11-23T01:52:20.236Z,73.33
2022-11-23T01:55:05.341Z,73.04
2022-11-23T01:57:42.811Z,72.88
2022-11-23T02:00:11.858Z,72.66
2022-11-23T02:02:47.154Z,73.59
2022-11-23T02:05:17.317Z,73.22
2022-11-23T02:07:46.280Z,73.14
2022-11-23T02:10:14.375Z,72.93
2022-11-23T02:12:42.535Z,73.29
2022-11-23T02:15:10.933Z,72.99
2022-11-23T02:17:38.597Z,73.31
2022-11-23T02:20:13.157Z,73.46
2022-11-23T02:23:05.373Z,72.80
2022-11-23T02:25:49.262Z,73.10
2022-11-23T02:28:22.439Z,72.91
2022-11-23T02:30:53.895Z,72.71
2022-11-23T02:33:22.416Z,73.12
2022-11-23T02:35:51.726Z,72.69
2022-11-23T02:38:21.152Z,73.08
2022-11-23T02:40:49.688Z,72.44
2022-11-23T02:43:17.965Z,73.02
2022-11-23T02:45:58.116Z,72.89
2022-11-23T02:48:26.949Z,72.83
2022-11-23T02:50:54.894Z,72.75
2022-11-23T02:53:23.850Z,71.88
2022-11-23T02:55:51.826Z,72.42
2022-11-23T02:58:19.829Z,72.80
2022-11-23T03:00:47.996Z,71.83
2022-11-23T03:03:16.088Z,72.20
2022-11-23T03:05:44.050Z,72.25
2022-11-23T03:08:12.234Z,72.43
2022-11-23T03:10:40.155Z,72.23
2022-11-23T03:13:08.169Z,72.50
2022-11-23T03:15:37.224Z,72.11
2022-11-23T03:18:05.234Z,72.47
2022-11-23T03:20:33.504Z,72.81
2022-11-23T03:23:01.651Z,72.62
2022-11-23T03:25:29.939Z,71.94
2022-11-23T03:27:58.003Z,72.23
2022-11-23T03:30:27.215Z,72.13
2022-11-23T03:32:55.299Z,72.19
2022-11-23T03:35:23.430Z,71.55
2022-11-23T03:37:53.071Z,71.78
2022-11-23T03:40:21.097Z,71.85
2022-11-23T03:42:49.074Z,71.70
2022-11-23T03:45:18.327Z,71.64
2022-11-23T03:47:46.327Z,71.53
2022-11-23T03:50:14.326Z,71.80
2022-11-23T03:52:42.381Z,71.70
2022-11-23T03:55:10.885Z,71.53
2022-11-23T03:57:38.897Z,71.97
2022-11-23T04:00:07.866Z,71.14
2022-11-23T04:02:36.239Z,71.29
2022-11-23T04:05:04.039Z,71.32
2022-11-23T04:07:32.229Z,71.60
2022-11-23T04:10:00.411Z,71.32
2022-11-23T04:12:28.479Z,71.26
2022-11-23T04:14:57.550Z,71.15
2022-11-23T04:17:25.569Z,70.91
2022-11-23T04:19:55.343Z,70.91
2022-11-23T04:22:23.469Z,71.22
2022-11-23T04:24:51.450Z,71.00
2022-11-23T04:27:19.515Z,70.79
2022-11-23T04:29:47.727Z,71.28
2022-11-23T04:32:15.746Z,70.74
2022-11-23T04:34:43.704Z,70.51
2022-11-23T04:37:13.879Z,70.98
2022-11-23T04:39:41.941Z,70.80
2022-11-23T04:42:13.923Z,70.36
2022-11-23T04:44:42.068Z,70.51
2022-11-23T04:47:11.875Z,70.71
2022-11-23T04:49:39.958Z,70.45
2022-11-23T04:52:10.993Z,70.48
2022-11-23T04:54:39.009Z,70.39
2022-11-23T04:57:07.161Z,70.44
2022-11-23T04:59:37.235Z,70.19
2022-11-23T05:02:05.270Z,70.48
2022-11-23T05:04:35.266Z,70.34
2022-11-23T05:07:03.505Z,70.52
2022-11-23T05:09:31.676Z,69.84
2022-11-23T05:11:59.750Z,70.72
2022-11-23T05:14:27.895Z,70.75
2022-11-23T05:16:55.956Z,69.82
2022-11-23T05:19:25.528Z,69.18
2022-11-23T05:21:53.892Z,69.90
2022-11-23T05:24:21.849Z,69.49
2022-11-23T05:26:54.798Z,69.63
2022-11-23T05:29:25.956Z,69.71
2022-11-23T05:31:54.848Z,69.95
2022-11-23T05:35:03.203Z,69.29
2022-11-23T08:35:07.516Z,65.61
2022-11-23T08:37:35.737Z,65.37
2022-11-23T08:40:03.471Z,65.18
2022-11-23T08:42:31.486Z,65.93
2022-11-23T08:45:00.707Z,66.57
2022-11-23T08:47:28.713Z,66.32
2022-11-23T08:49:58.217Z,67.22
2022-11-23T08:52:26.813Z,67.05
2022-11-23T08:54:54.867Z,67.55
2022-11-23T08:57:23.059Z,67.37
2022-11-23T08:59:51.108Z,67.80
2022-11-23T09:02:18.799Z,67.58
2022-11-23T09:04:48.582Z,68.04
2022-11-23T09:07:16.638Z,68.27
2022-11-23T09:09:44.273Z,68.16
2022-11-23T09:12:14.122Z,68.47
2022-11-23T09:14:42.259Z,68.49
2022-11-23T09:17:10.249Z,68.35
2022-11-23T09:19:38.028Z,68.30
2022-11-23T09:22:06.089Z,68.84
2022-11-23T09:24:34.353Z,68.60
2022-11-23T09:27:07.109Z,68.95
2022-11-23T09:29:35.224Z,68.83
2022-11-23T09:32:03.622Z,69.15
2022-11-23T09:34:33.449Z,68.80
2022-11-23T09:37:01.878Z,68.77
2022-11-23T09:39:29.672Z,69.09
2022-11-23T09:42:17.766Z,69.42
2022-11-23T09:44:52.878Z,68.96
2022-11-23T09:47:26.425Z,68.61
2022-11-23T09:50:15.744Z,68.60
2022-11-23T09:52:47.770Z,69.13
2022-11-23T09:55:28.794Z,68.84
2022-11-23T09:58:03.306Z,68.86
2022-11-23T10:00:39.926Z,68.82
2022-11-23T10:03:12.838Z,69.33
2022-11-23T10:05:40.995Z,68.76
2022-11-23T10:08:27.156Z,69.09
2022-11-23T10:11:27.745Z,69.00
2022-11-23T10:13:55.910Z,68.74
2022-11-23T10:16:55.048Z,68.92
2022-11-23T10:19:41.731Z,68.72
2022-11-23T10:22:32.370Z,69.26
2022-11-23T10:25:11.076Z,69.54
2022-11-23T10:27:39.276Z,69.17
2022-11-23T10:30:16.374Z,69.18
2022-11-23T10:33:22.884Z,68.62
2022-11-23T10:35:50.896Z,68.96
2022-11-23T10:38:21.555Z,69.06
2022-11-23T10:41:15.260Z,69.64
2022-11-23T10:44:00.090Z,69.41
2022-11-23T10:46:39.037Z,69.10
2022-11-23T10:49:21.989Z,69.43
2022-11-23T10:51:57.097Z,69.38
2022-11-23T10:54:36.362Z,69.38
2022-11-23T10:57:37.208Z,69.32
2022-11-23T11:00:17.421Z,69.29
2022-11-23T11:02:55.246Z,69.53
2022-11-23T11:08:33.233Z,69.33
2022-11-23T11:11:22.275Z,68.98
2022-11-23T11:13:50.452Z,69.29
2022-11-23T11:16:34.655Z,69.94
2022-11-23T11:19:23.738Z,69.13
2022-11-23T11:21:51.668Z,69.47
2022-11-23T11:24:24.697Z,69.63
2022-11-23T11:27:04.089Z,69.28
2022-11-23T11:29:41.166Z,69.40
2022-11-23T11:32:19.917Z,68.93
2022-11-23T11:35:03.122Z,69.85
2022-11-23T11:37:50.587Z,69.39
2022-11-23T11:40:33.334Z,69.00
2022-11-23T11:43:18.091Z,69.15
2022-11-23T11:46:21.249Z,69.32
2022-11-23T11:48:39.700Z,69.19
2022-11-23T11:51:14.410Z,69.71
2022-11-23T11:53:54.824Z,69.30
2022-11-23T11:56:43.074Z,68.69
2022-11-23T11:59:26.936Z,69.44
2022-11-23T12:02:30.851Z,68.63
2022-11-23T12:05:31.099Z,69.27
2022-11-23T12:08:05.839Z,69.55
2022-11-23T12:10:50.890Z,69.04
2022-11-23T12:13:24.595Z,68.73
2022-11-23T12:16:05.690Z,69.47
2022-11-23T12:18:51.263Z,69.04
2022-11-23T12:22:01.303Z,69.19
2022-11-23T12:24:32.341Z,69.23
2022-11-23T12:27:09.520Z,69.36
2022-11-23T12:30:03.029Z,69.20
2022-11-23T12:33:07.173Z,69.30
2022-11-23T12:35:55.954Z,69.09
2022-11-23T12:38:54.237Z,69.26
2022-11-23T12:41:31.375Z,69.48
2022-11-23T12:44:06.390Z,69.18
2022-11-23T12:46:56.461Z,68.99
2022-11-23T12:49:54.145Z,69.10
2022-11-23T12:52:37.358Z,69.25
2022-11-23T12:55:20.309Z,69.22
2022-11-23T12:58:06.077Z,69.09
2022-11-23T13:00:47.375Z,69.28
2022-11-23T13:03:18.138Z,69.39
2022-11-23T13:06:02.391Z,69.30
2022-11-23T13:08:57.716Z,69.30
2022-11-23T13:12:04.673Z,69.11
2022-11-23T13:14:47.399Z,69.04
2022-11-23T13:17:47.154Z,69.10
2022-11-23T13:20:36.917Z,68.91
2022-11-23T13:23:07.684Z,69.07
2022-11-23T13:25:35.718Z,68.85
2022-11-23T13:28:32.736Z,69.17
2022-11-23T13:31:32.074Z,69.52
2022-11-23T13:34:03.407Z,69.24
2022-11-23T13:37:04.261Z,69.26
2022-11-23T13:39:44.178Z,69.50
2022-11-23T13:42:12.729Z,69.53
2022-11-23T13:44:41.048Z,69.74
2022-11-23T13:47:18.122Z,69.42
2022-11-23T13:49:51.710Z,69.08
2022-11-23T13:52:22.863Z,69.29
2022-11-23T13:55:37.153Z,69.38
2022-11-23T13:58:23.899Z,69.18
2022-11-23T14:00:54.409Z,68.92
2022-11-23T14:03:44.677Z,69.21
2022-11-23T14:06:24.550Z,69.09
2022-11-23T14:09:09.779Z,69.31
2022-11-23T14:11:52.760Z,69.30
2022-11-23T14:14:25.872Z,69.11
2022-11-23T14:17:09.621Z,69.42
2022-11-23T14:19:55.996Z,69.22
2022-11-23T14:22:45.311Z,69.44
2022-11-23T14:25:31.065Z,69.07
2022-11-23T14:28:09.275Z,69.16
2022-11-23T14:31:03.672Z,69.25
2022-11-23T14:33:47.596Z,69.09
2022-11-23T14:36:42.296Z,69.22
2022-11-23T14:39:30.180Z,69.20
2022-11-23T14:42:03.842Z,69.37
2022-11-23T14:44:38.455Z,69.07
2022-11-23T14:47:10.384Z,69.43
2022-11-23T14:49:49.937Z,69.52
2022-11-23T14:52:36.362Z,69.42
2022-11-23T14:55:09.943Z,69.28
2022-11-23T14:57:46.625Z,69.30
2022-11-23T15:00:30.055Z,69.57
2022-11-23T15:03:49.599Z,69.14
2022-11-23T15:06:11.943Z,69.25
2022-11-23T15:09:10.635Z,69.09
2022-11-23T15:11:39.084Z,69.55
2022-11-23T15:14:27.814Z,69.76
2022-11-23T15:16:56.102Z,68.98
2022-11-23T15:19:29.704Z,69.52
2022-11-23T15:21:58.714Z,69.37
2022-11-23T15:24:28.258Z,69.18
2022-11-23T15:27:11.089Z,69.05
2022-11-23T15:29:41.788Z,69.60
2022-11-23T15:32:33.199Z,69.12
2022-11-23T15:35:07.716Z,69.32
2022-11-23T15:37:48.801Z,69.45
